createdAt,value
2018-11-22T00:00:24.108Z,21.87
2018-11-22T00:02:53.757Z,21.23
2018-11-22T00:05:21.999Z,23.07
2018-11-22T00:07:51.180Z,21.17
2018-11-22T00:10:19.944Z,22.67
2018-11-22T00:12:48.135Z,21.47
2018-11-22T00:15:16.936Z,20.33
2018-11-22T00:17:45.613Z,19.53
2018-11-22T00:20:14.060Z,22.30
2018-11-22T00:22:42.522Z,20.20
2018-11-22T00:25:11.956Z,22.10
2018-11-22T00:27:40.338Z,19.63
2018-11-22T00:30:10.153Z,22.80
2018-11-22T00:32:38.653Z,20.93
2018-11-22T00:35:08.425Z,21.57
2018-11-22T00:37:36.662Z,22.40
2018-11-22T00:40:09.447Z,22.47
2018-11-22T00:42:37.674Z,21.37
2018-11-22T00:45:08.303Z,18.83
2018-11-22T00:47:36.528Z,19.70
2018-11-22T00:50:05.471Z,21.03
2018-11-22T00:52:33.676Z,21.27
2018-11-22T00:55:01.883Z,22.20
2018-11-22T00:57:30.135Z,22.57
2018-11-22T00:59:58.311Z,20.80
2018-11-22T01:02:26.516Z,21.07
2018-11-22T01:04:54.999Z,21.03
2018-11-22T01:07:23.176Z,24.27
2018-11-22T01:09:51.360Z,21.07
2018-11-22T01:12:19.555Z,19.43
2018-11-22T01:14:47.723Z,21.07
2018-11-22T01:17:15.908Z,22.93
2018-11-22T01:19:44.104Z,19.73
2018-11-22T01:22:12.297Z,21.47
2018-11-22T01:24:40.792Z,23.00
2018-11-22T01:27:08.976Z,18.73
2018-11-22T01:29:37.802Z,22.60
2018-11-22T01:32:05.994Z,22.93
2018-11-22T01:34:34.197Z,22.70
2018-11-22T01:37:02.455Z,20.67
2018-11-22T01:39:30.632Z,23.13
2018-11-22T01:41:58.875Z,20.43
2018-11-22T01:44:27.084Z,22.30
2018-11-22T01:46:55.266Z,22.93
2018-11-22T01:49:23.504Z,20.40
2018-11-22T01:51:52.048Z,21.93
2018-11-22T01:54:20.222Z,24.17
2018-11-22T01:56:48.412Z,21.27
2018-11-22T01:59:16.610Z,22.07
2018-11-22T02:01:45.351Z,25.93
2018-11-22T02:04:13.527Z,22.20
2018-11-22T02:06:41.995Z,22.83
2018-11-22T02:09:11.050Z,19.47
2018-11-22T02:11:40.959Z,18.50
2018-11-22T02:14:09.296Z,22.97
2018-11-22T02:16:37.919Z,24.93
2018-11-22T02:19:06.096Z,25.37
2018-11-22T02:21:34.524Z,23.30
2018-11-22T02:24:02.734Z,21.77
2018-11-22T02:26:31.266Z,24.60
2018-11-22T02:29:00.079Z,22.07
2018-11-22T02:31:28.265Z,23.33
2018-11-22T02:33:56.451Z,20.80
2018-11-22T02:36:24.684Z,21.43
2018-11-22T12:17:58.811Z,26.07
2018-11-22T12:20:27.068Z,24.23
2018-11-22T12:22:56.679Z,22.43
2018-11-22T12:25:25.872Z,23.30
2018-11-22T12:27:55.627Z,21.77
2018-11-22T12:30:26.172Z,22.37
2018-11-22T12:32:59.755Z,23.57
2018-11-22T12:35:33.531Z,23.80
2018-11-22T12:38:07.204Z,23.37
2018-11-22T12:40:35.388Z,23.07
2018-11-22T12:43:03.583Z,25.13
2018-11-22T12:45:32.097Z,27.30
2018-11-22T12:48:00.268Z,22.73
2018-11-22T12:50:28.812Z,21.20
2018-11-22T12:52:57.006Z,19.30
2018-11-22T12:55:25.181Z,26.13
2018-11-22T12:57:53.400Z,24.23
2018-11-22T13:00:21.705Z,22.70
2018-11-22T13:02:49.868Z,22.63
2018-11-22T13:05:18.931Z,23.70
2018-11-22T13:07:47.131Z,25.70
2018-11-22T13:10:16.599Z,22.47
2018-11-22T13:12:46.165Z,20.83
2018-11-22T13:15:15.683Z,24.97
2018-11-22T13:17:43.873Z,24.87
2018-11-22T13:20:13.399Z,21.97
2018-11-22T13:22:41.613Z,24.03
2018-11-22T13:25:12.216Z,25.93
2018-11-22T13:27:40.579Z,24.33
2018-11-22T13:30:12.531Z,22.17
2018-11-22T13:32:40.756Z,23.67
2018-11-22T13:35:09.792Z,24.57
2018-11-22T13:37:37.996Z,23.47
2018-11-22T13:40:07.587Z,26.07
2018-11-22T13:42:35.756Z,24.03
2018-11-22T13:45:08.460Z,29.97
2018-11-22T13:47:36.929Z,28.77
2018-11-22T13:50:07.641Z,22.40
2018-11-22T13:52:37.302Z,24.83
2018-11-22T13:55:04.264Z,25.57
2018-11-22T13:57:32.448Z,24.37
2018-11-22T14:00:00.880Z,27.17
2018-11-22T14:02:29.078Z,21.90
2018-11-22T14:04:57.256Z,25.77
2018-11-22T14:07:25.436Z,28.07
2018-11-22T14:09:53.634Z,22.93
2018-11-22T14:12:21.812Z,23.50
2018-11-22T14:14:49.988Z,25.03
2018-11-22T14:17:18.547Z,22.90
2018-11-22T14:19:46.728Z,22.60
2018-11-22T14:22:14.905Z,25.37
2018-11-22T14:24:43.100Z,22.73
2018-11-22T14:27:11.307Z,24.00
2018-11-22T14:29:39.473Z,27.53
2018-11-22T14:32:07.923Z,25.40
2018-11-22T14:34:36.113Z,25.47
2018-11-22T14:37:04.316Z,25.13
2018-11-22T14:39:32.513Z,23.37
2018-11-22T14:42:00.711Z,25.97
2018-11-22T14:44:28.883Z,24.83
2018-11-22T14:46:57.074Z,24.20
2018-11-22T14:49:25.264Z,23.20
2018-11-22T14:51:54.856Z,23.97
2018-11-22T14:54:23.065Z,26.83
2018-11-22T14:56:51.256Z,26.43
2018-11-22T14:59:19.429Z,24.53
2018-11-22T15:01:47.636Z,25.93
2018-11-22T15:04:15.840Z,24.07
2018-11-22T15:06:44.056Z,25.57
2018-11-22T15:09:12.248Z,24.47
2018-11-22T15:11:40.559Z,25.43
2018-11-22T15:14:08.762Z,22.87
2018-11-22T15:16:36.956Z,24.77
2018-11-22T15:19:05.286Z,27.07
2018-11-22T15:21:33.516Z,26.87
2018-11-22T15:24:01.705Z,24.03
2018-11-22T15:26:29.905Z,27.93
2018-11-22T15:28:58.097Z,26.23
2018-11-22T15:31:26.288Z,27.47
2018-11-22T15:33:54.476Z,27.30
2018-11-22T15:36:22.692Z,27.87
2018-11-22T15:38:50.888Z,27.60
2018-11-22T15:41:19.091Z,25.07
2018-11-22T15:43:47.285Z,27.87
2018-11-22T15:46:15.520Z,26.80
2018-11-22T15:48:43.994Z,31.63
2018-11-22T15:51:12.185Z,28.57
2018-11-22T15:53:40.392Z,31.00
2018-11-22T15:56:08.628Z,27.20
2018-11-22T15:58:36.836Z,28.43
2018-11-22T16:01:05.285Z,29.03
2018-11-22T16:03:33.494Z,29.00
2018-11-22T16:06:01.695Z,29.10
2018-11-22T16:08:29.905Z,29.20
2018-11-22T16:10:58.110Z,28.37
2018-11-22T16:13:26.287Z,29.30
2018-11-22T16:15:55.024Z,28.90
2018-11-22T16:18:23.420Z,30.23
2018-11-22T16:20:51.624Z,31.83
2018-11-22T16:23:19.866Z,27.07
2018-11-22T16:25:48.077Z,31.50
2018-11-22T16:28:16.276Z,31.83
2018-11-22T16:30:44.627Z,34.97
2018-11-22T16:33:12.803Z,35.63
2018-11-22T16:35:40.988Z,35.20
2018-11-22T16:38:09.209Z,32.60
2018-11-22T16:40:37.452Z,37.23
2018-11-22T16:43:05.842Z,30.93
2018-11-22T16:45:35.461Z,33.27
2018-11-22T16:48:05.436Z,30.67
2018-11-22T16:50:34.876Z,35.03
2018-11-22T16:53:03.055Z,38.90
2018-11-22T16:55:31.272Z,37.77
2018-11-22T16:58:00.627Z,34.53
2018-11-22T17:00:30.247Z,38.63
2018-11-22T17:03:00.083Z,42.93
2018-11-22T17:05:28.440Z,46.40
2018-11-22T17:07:56.809Z,58.17
2018-11-22T17:10:26.319Z,45.10
2018-11-22T17:12:55.643Z,38.03
2018-11-22T17:15:26.463Z,39.80
2018-11-22T17:17:55.336Z,42.70
2018-11-22T17:20:24.121Z,45.87
2018-11-22T17:22:53.023Z,45.10
2018-11-22T17:25:22.519Z,44.20
2018-11-22T17:27:52.244Z,42.83
2018-11-22T17:30:22.044Z,45.20
2018-11-22T17:32:50.248Z,52.03
2018-11-22T17:35:21.628Z,48.13
2018-11-22T17:37:50.039Z,46.27
2018-11-22T17:40:23.546Z,38.77
2018-11-22T17:42:51.816Z,42.43
2018-11-22T17:45:25.799Z,40.10
2018-11-22T17:47:54.242Z,39.47
2018-11-22T17:50:24.108Z,41.17
2018-11-22T17:52:52.327Z,38.07
2018-11-22T17:55:21.929Z,44.10
2018-11-22T17:57:50.377Z,37.77
2018-11-22T18:00:35.051Z,45.20
2018-11-22T18:03:04.098Z,40.60
2018-11-22T18:05:32.532Z,38.90
2018-11-22T18:08:00.735Z,46.77
2018-11-22T18:10:31.331Z,45.00
2018-11-22T18:13:00.018Z,43.00
2018-11-22T18:15:29.183Z,44.40
2018-11-22T18:17:57.602Z,48.13
2018-11-22T18:20:27.195Z,43.47
2018-11-22T18:22:56.391Z,42.07
2018-11-22T18:25:26.046Z,44.33
2018-11-22T18:27:54.479Z,48.37
2018-11-22T18:30:26.421Z,40.97
2018-11-22T18:32:56.727Z,41.13
2018-11-22T18:35:24.961Z,42.47
2018-11-22T18:37:53.187Z,37.53
2018-11-22T18:40:22.718Z,46.80
2018-11-22T18:42:52.092Z,46.17
2018-11-22T18:45:25.548Z,38.47
2018-11-22T18:47:53.776Z,40.07
2018-11-22T18:50:23.292Z,42.33
2018-11-22T18:52:51.760Z,45.50
2018-11-22T18:55:19.958Z,47.80
2018-11-22T18:57:48.148Z,43.03
2018-11-22T19:00:19.163Z,46.67
2018-11-22T19:02:47.339Z,48.20
2018-11-22T19:05:16.127Z,46.67
2018-11-22T19:07:45.440Z,48.47
2018-11-22T19:10:15.848Z,54.20
2018-11-22T19:12:44.961Z,48.30
2018-11-22T19:15:14.301Z,44.37
2018-11-22T19:17:42.661Z,54.23
2018-11-22T19:20:15.207Z,45.90
2018-11-22T19:22:44.726Z,40.97
2018-11-22T19:25:12.993Z,48.07
2018-11-22T19:27:41.579Z,43.13
2018-11-22T19:30:13.332Z,43.03
2018-11-22T19:32:41.705Z,46.83
2018-11-22T19:35:11.028Z,52.13
2018-11-22T19:37:39.500Z,45.47
2018-11-22T19:40:11.911Z,48.70
2018-11-22T19:42:40.591Z,40.20
2018-11-22T19:45:10.767Z,41.23
2018-11-22T19:47:38.979Z,41.37
2018-11-22T19:50:09.736Z,47.50
2018-11-22T19:52:37.953Z,41.83
2018-11-22T19:55:08.043Z,40.37
2018-11-22T19:57:36.260Z,41.03
2018-11-22T20:00:05.108Z,47.93
2018-11-22T20:02:33.313Z,37.87
2018-11-22T20:05:01.506Z,43.10
2018-11-22T20:07:29.699Z,49.43
2018-11-22T20:09:57.882Z,43.30
2018-11-22T20:12:26.072Z,44.20
2018-11-22T20:14:54.439Z,47.40
2018-11-22T20:17:22.710Z,39.90
2018-11-22T20:19:50.892Z,44.53
2018-11-22T20:22:19.092Z,43.87
2018-11-22T20:24:47.280Z,36.50
2018-11-22T20:27:15.489Z,47.70
2018-11-22T20:29:43.677Z,40.50
2018-11-22T20:32:11.907Z,48.10
2018-11-22T20:34:40.156Z,50.30
2018-11-22T20:37:08.339Z,41.90
2018-11-22T20:39:36.568Z,42.67
2018-11-22T20:42:05.105Z,50.70
2018-11-22T20:44:33.291Z,40.80
2018-11-22T20:47:01.479Z,47.37
2018-11-22T20:49:29.729Z,50.60
2018-11-22T20:51:57.925Z,48.17
2018-11-22T20:54:26.116Z,50.13
2018-11-22T20:56:54.292Z,56.33
2018-11-22T20:59:22.489Z,49.73
2018-11-22T21:01:51.783Z,47.17
2018-11-22T21:04:19.164Z,51.00
2018-11-22T21:06:47.356Z,48.47
2018-11-22T21:09:15.548Z,58.57
2018-11-22T21:11:44.092Z,56.33
2018-11-22T21:14:12.264Z,51.70
2018-11-22T21:16:40.440Z,50.07
2018-11-22T21:19:08.647Z,48.70
2018-11-22T21:21:37.180Z,49.70
2018-11-22T21:24:05.892Z,54.77
2018-11-22T21:26:34.080Z,57.43
2018-11-22T21:29:02.304Z,58.90
2018-11-22T21:31:30.488Z,59.30
2018-11-22T21:33:58.668Z,51.17
2018-11-22T21:36:26.928Z,51.33
2018-11-22T21:38:55.071Z,53.73
2018-11-22T21:41:23.292Z,52.77
2018-11-22T21:43:51.771Z,57.47
2018-11-22T21:46:25.428Z,58.73
2018-11-22T21:48:53.619Z,57.07
2018-11-22T21:51:21.805Z,50.67
2018-11-22T21:53:50.003Z,50.80
2018-11-22T21:56:18.207Z,46.13
2018-11-22T21:58:46.404Z,50.13
2018-11-22T22:01:14.603Z,51.80
2018-11-22T22:03:42.804Z,48.17
2018-11-22T22:06:11.048Z,47.80
2018-11-22T22:08:39.260Z,51.07
2018-11-22T22:11:07.440Z,44.93
2018-11-22T22:13:35.637Z,50.30
2018-11-22T22:16:03.850Z,45.90
2018-11-22T22:18:32.020Z,50.60
2018-11-22T22:21:00.213Z,45.23
2018-11-22T22:23:28.392Z,50.47
2018-11-22T22:25:56.581Z,50.03
2018-11-22T22:28:24.774Z,40.73
2018-11-22T22:30:52.992Z,47.83
2018-11-22T22:33:21.164Z,42.90
2018-11-22T22:35:49.359Z,48.27
2018-11-22T22:38:17.561Z,44.77
2018-11-22T22:40:45.736Z,52.77
2018-11-22T22:43:13.939Z,57.90
2018-11-22T22:45:42.107Z,52.23
2018-11-22T22:48:10.296Z,53.07
2018-11-22T22:50:38.469Z,48.43
2018-11-22T22:53:06.687Z,54.13
2018-11-22T22:55:34.936Z,55.77
2018-11-22T22:58:03.109Z,45.87
2018-11-22T23:00:36.742Z,52.43
2018-11-22T23:03:06.376Z,57.30
2018-11-22T23:05:34.798Z,53.03
2018-11-22T23:08:02.990Z,49.13
2018-11-22T23:10:31.170Z,50.53
2018-11-22T23:12:59.791Z,47.53
2018-11-22T23:15:28.980Z,46.03
2018-11-22T23:17:57.160Z,48.33
2018-11-22T23:20:27.690Z,42.83
2018-11-22T23:22:55.944Z,48.53
2018-11-22T23:25:25.206Z,42.00
2018-11-22T23:27:53.387Z,43.83
2018-11-22T23:30:24.639Z,41.40
2018-11-22T23:32:54.092Z,40.43
2018-11-22T23:35:22.557Z,36.93
2018-11-22T23:37:51.163Z,44.90
2018-11-22T23:40:21.466Z,44.57
2018-11-22T23:42:49.644Z,42.67
2018-11-22T23:45:19.039Z,44.90
2018-11-22T23:47:47.899Z,46.80
2018-11-22T23:50:17.335Z,41.63
2018-11-22T23:52:46.627Z,48.07
2018-11-22T23:55:15.224Z,47.20
2018-11-22T23:57:43.395Z,60.93
